sensor_id;sensor_type;location;lat;lon;timestamp;P1;durP1;ratioP1;P2;durP2;ratioP2
41946;SDS011;27638;42.184;24.848;2023-03-19T00:01:25;14.60;;;9.98;;
41946;SDS011;27638;42.184;24.848;2023-03-19T00:03:50;18.17;;;9.95;;
41946;SDS011;27638;42.184;24.848;2023-03-19T00:06:16;19.33;;;11.13;;
41946;SDS011;27638;42.184;24.848;2023-03-19T00:08:41;21.70;;;12.05;;
41946;SDS011;27638;42.184;24.848;2023-03-19T00:11:08;20.55;;;11.18;;
41946;SDS011;27638;42.184;24.848;2023-03-19T00:13:35;15.10;;;9.27;;
41946;SDS011;27638;42.184;24.848;2023-03-19T00:16:00;16.45;;;9.23;;
41946;SDS011;27638;42.184;24.848;2023-03-19T00:18:26;20.17;;;9.75;;
41946;SDS011;27638;42.184;24.848;2023-03-19T00:20:51;14.48;;;9.38;;
41946;SDS011;27638;42.184;24.848;2023-03-19T00:23:17;17.75;;;9.30;;
41946;SDS011;27638;42.184;24.848;2023-03-19T00:25:42;20.60;;;10.45;;
41946;SDS011;27638;42.184;24.848;2023-03-19T00:28:08;16.60;;;9.75;;
41946;SDS011;27638;42.184;24.848;2023-03-19T00:30:33;19.30;;;9.45;;
41946;SDS011;27638;42.184;24.848;2023-03-19T00:32:59;20.52;;;10.48;;
41946;SDS011;27638;42.184;24.848;2023-03-19T00:35:25;14.68;;;8.18;;
41946;SDS011;27638;42.184;24.848;2023-03-19T00:37:51;14.52;;;8.70;;
41946;SDS011;27638;42.184;24.848;2023-03-19T00:40:16;16.75;;;8.95;;
41946;SDS011;27638;42.184;24.848;2023-03-19T00:42:42;16.45;;;8.88;;
41946;SDS011;27638;42.184;24.848;2023-03-19T00:45:09;13.55;;;8.32;;
41946;SDS011;27638;42.184;24.848;2023-03-19T00:47:35;13.95;;;8.48;;
41946;SDS011;27638;42.184;24.848;2023-03-19T00:50:01;14.32;;;7.95;;
41946;SDS011;27638;42.184;24.848;2023-03-19T00:52:28;14.38;;;8.10;;
41946;SDS011;27638;42.184;24.848;2023-03-19T00:54:53;14.40;;;8.13;;
41946;SDS011;27638;42.184;24.848;2023-03-19T00:57:19;16.20;;;9.38;;
41946;SDS011;27638;42.184;24.848;2023-03-19T00:59:45;13.93;;;8.27;;
41946;SDS011;27638;42.184;24.848;2023-03-19T01:02:10;13.30;;;7.75;;
41946;SDS011;27638;42.184;24.848;2023-03-19T01:04:36;13.35;;;7.65;;
41946;SDS011;27638;42.184;24.848;2023-03-19T01:07:01;11.15;;;6.80;;
41946;SDS011;27638;42.184;24.848;2023-03-19T01:09:27;12.68;;;7.03;;
41946;SDS011;27638;42.184;24.848;2023-03-19T01:11:52;10.45;;;6.50;;
41946;SDS011;27638;42.184;24.848;2023-03-19T01:14:18;11.57;;;7.40;;
41946;SDS011;27638;42.184;24.848;2023-03-19T01:16:43;11.10;;;6.95;;
41946;SDS011;27638;42.184;24.848;2023-03-19T01:19:09;11.98;;;7.25;;
41946;SDS011;27638;42.184;24.848;2023-03-19T01:21:34;10.82;;;7.07;;
41946;SDS011;27638;42.184;24.848;2023-03-19T01:24:00;12.63;;;7.53;;
41946;SDS011;27638;42.184;24.848;2023-03-19T01:26:26;10.77;;;6.80;;
41946;SDS011;27638;42.184;24.848;2023-03-19T01:28:51;11.38;;;7.68;;
41946;SDS011;27638;42.184;24.848;2023-03-19T01:31:17;14.07;;;7.28;;
41946;SDS011;27638;42.184;24.848;2023-03-19T01:33:43;10.00;;;5.68;;
41946;SDS011;27638;42.184;24.848;2023-03-19T01:36:08;9.38;;;5.78;;
41946;SDS011;27638;42.184;24.848;2023-03-19T01:38:35;7.53;;;4.97;;
41946;SDS011;27638;42.184;24.848;2023-03-19T01:41:00;11.68;;;5.60;;
41946;SDS011;27638;42.184;24.848;2023-03-19T01:43:27;11.10;;;6.43;;
41946;SDS011;27638;42.184;24.848;2023-03-19T01:48:59;9.23;;;5.68;;
41946;SDS011;27638;42.184;24.848;2023-03-19T01:51:27;11.23;;;6.68;;
41946;SDS011;27638;42.184;24.848;2023-03-19T01:53:59;9.27;;;6.30;;
41946;SDS011;27638;42.184;24.848;2023-03-19T01:56:30;11.13;;;6.22;;
41946;SDS011;27638;42.184;24.848;2023-03-19T01:58:59;10.55;;;5.75;;
41946;SDS011;27638;42.184;24.848;2023-03-19T02:01:31;15.10;;;6.95;;
41946;SDS011;27638;42.184;24.848;2023-03-19T02:04:00;15.18;;;8.40;;
41946;SDS011;27638;42.184;24.848;2023-03-19T02:06:27;11.95;;;7.10;;
41946;SDS011;27638;42.184;24.848;2023-03-19T02:08:54;10.88;;;6.35;;
41946;SDS011;27638;42.184;24.848;2023-03-19T02:11:20;9.52;;;5.68;;
41946;SDS011;27638;42.184;24.848;2023-03-19T02:13:46;11.45;;;6.15;;
41946;SDS011;27638;42.184;24.848;2023-03-19T02:16:12;10.60;;;6.63;;
41946;SDS011;27638;42.184;24.848;2023-03-19T02:18:40;12.68;;;6.78;;
41946;SDS011;27638;42.184;24.848;2023-03-19T02:21:07;8.48;;;5.10;;
41946;SDS011;27638;42.184;24.848;2023-03-19T02:23:53;9.68;;;5.43;;
41946;SDS011;27638;42.184;24.848;2023-03-19T02:26:26;9.20;;;5.72;;
41946;SDS011;27638;42.184;24.848;2023-03-19T02:28:53;9.35;;;5.25;;
41946;SDS011;27638;42.184;24.848;2023-03-19T02:31:19;10.70;;;5.63;;
41946;SDS011;27638;42.184;24.848;2023-03-19T02:34:46;11.73;;;6.50;;
41946;SDS011;27638;42.184;24.848;2023-03-19T02:36:43;11.60;;;5.75;;
41946;SDS011;27638;42.184;24.848;2023-03-19T02:39:16;12.75;;;6.22;;
41946;SDS011;27638;42.184;24.848;2023-03-19T02:41:47;11.00;;;5.27;;
41946;SDS011;27638;42.184;24.848;2023-03-19T02:44:13;8.77;;;6.15;;
41946;SDS011;27638;42.184;24.848;2023-03-19T02:46:38;11.05;;;5.68;;
41946;SDS011;27638;42.184;24.848;2023-03-19T02:49:04;8.38;;;5.07;;
41946;SDS011;27638;42.184;24.848;2023-03-19T02:51:29;9.93;;;5.30;;
41946;SDS011;27638;42.184;24.848;2023-03-19T02:53:55;9.65;;;6.47;;
41946;SDS011;27638;42.184;24.848;2023-03-19T02:56:20;12.98;;;6.60;;
41946;SDS011;27638;42.184;24.848;2023-03-19T02:58:46;9.60;;;5.90;;
41946;SDS011;27638;42.184;24.848;2023-03-19T03:01:11;10.43;;;6.25;;
41946;SDS011;27638;42.184;24.848;2023-03-19T03:03:37;13.32;;;5.88;;
41946;SDS011;27638;42.184;24.848;2023-03-19T03:06:03;10.18;;;5.80;;
41946;SDS011;27638;42.184;24.848;2023-03-19T03:08:28;12.20;;;6.95;;
41946;SDS011;27638;42.184;24.848;2023-03-19T03:10:54;10.73;;;6.45;;
41946;SDS011;27638;42.184;24.848;2023-03-19T03:13:19;11.18;;;6.18;;
41946;SDS011;27638;42.184;24.848;2023-03-19T03:15:45;11.68;;;6.72;;
41946;SDS011;27638;42.184;24.848;2023-03-19T03:18:10;9.43;;;5.60;;
41946;SDS011;27638;42.184;24.848;2023-03-19T03:20:36;9.88;;;5.80;;
41946;SDS011;27638;42.184;24.848;2023-03-19T03:23:01;7.75;;;5.35;;
41946;SDS011;27638;42.184;24.848;2023-03-19T03:25:27;8.13;;;5.70;;
41946;SDS011;27638;42.184;24.848;2023-03-19T03:27:52;9.68;;;6.28;;
41946;SDS011;27638;42.184;24.848;2023-03-19T03:30:18;7.68;;;4.93;;
41946;SDS011;27638;42.184;24.848;2023-03-19T03:32:44;8.50;;;5.60;;
41946;SDS011;27638;42.184;24.848;2023-03-19T03:35:10;8.82;;;4.78;;
41946;SDS011;27638;42.184;24.848;2023-03-19T03:37:35;8.65;;;5.13;;
41946;SDS011;27638;42.184;24.848;2023-03-19T03:40:02;9.90;;;4.65;;
41946;SDS011;27638;42.184;24.848;2023-03-19T03:42:32;9.45;;;4.72;;
41946;SDS011;27638;42.184;24.848;2023-03-19T03:44:58;9.52;;;4.85;;
41946;SDS011;27638;42.184;24.848;2023-03-19T03:47:23;8.55;;;5.47;;
41946;SDS011;27638;42.184;24.848;2023-03-19T03:49:48;9.82;;;4.93;;
41946;SDS011;27638;42.184;24.848;2023-03-19T03:52:14;6.32;;;4.32;;
41946;SDS011;27638;42.184;24.848;2023-03-19T03:54:40;8.43;;;5.32;;
41946;SDS011;27638;42.184;24.848;2023-03-19T03:57:05;9.50;;;5.97;;
41946;SDS011;27638;42.184;24.848;2023-03-19T03:59:32;9.75;;;5.85;;
41946;SDS011;27638;42.184;24.848;2023-03-19T04:01:57;7.13;;;4.72;;
41946;SDS011;27638;42.184;24.848;2023-03-19T04:04:23;9.30;;;5.20;;
41946;SDS011;27638;42.184;24.848;2023-03-19T04:06:48;8.07;;;5.15;;
41946;SDS011;27638;42.184;24.848;2023-03-19T04:09:14;9.02;;;5.50;;
41946;SDS011;27638;42.184;24.848;2023-03-19T04:11:41;9.40;;;5.15;;
41946;SDS011;27638;42.184;24.848;2023-03-19T04:14:06;8.57;;;5.57;;
41946;SDS011;27638;42.184;24.848;2023-03-19T04:16:32;8.13;;;4.90;;
41946;SDS011;27638;42.184;24.848;2023-03-19T04:18:58;10.55;;;5.18;;
41946;SDS011;27638;42.184;24.848;2023-03-19T04:21:23;7.78;;;4.60;;
41946;SDS011;27638;42.184;24.848;2023-03-19T04:23:50;6.90;;;4.72;;
41946;SDS011;27638;42.184;24.848;2023-03-19T04:26:15;6.95;;;4.80;;
41946;SDS011;27638;42.184;24.848;2023-03-19T04:28:41;8.18;;;5.32;;
41946;SDS011;27638;42.184;24.848;2023-03-19T04:31:06;7.00;;;4.53;;
41946;SDS011;27638;42.184;24.848;2023-03-19T04:33:33;7.45;;;4.90;;
41946;SDS011;27638;42.184;24.848;2023-03-19T04:35:59;7.38;;;4.30;;
41946;SDS011;27638;42.184;24.848;2023-03-19T04:38:25;8.68;;;4.65;;
41946;SDS011;27638;42.184;24.848;2023-03-19T04:40:51;6.82;;;4.43;;
41946;SDS011;27638;42.184;24.848;2023-03-19T04:43:17;7.97;;;4.75;;
41946;SDS011;27638;42.184;24.848;2023-03-19T04:45:42;7.88;;;5.05;;
41946;SDS011;27638;42.184;24.848;2023-03-19T04:48:08;9.15;;;5.63;;
41946;SDS011;27638;42.184;24.848;2023-03-19T04:50:33;10.07;;;5.38;;
41946;SDS011;27638;42.184;24.848;2023-03-19T04:52:59;7.47;;;4.40;;
41946;SDS011;27638;42.184;24.848;2023-03-19T04:55:25;10.95;;;5.25;;
41946;SDS011;27638;42.184;24.848;2023-03-19T04:57:50;8.43;;;4.72;;
41946;SDS011;27638;42.184;24.848;2023-03-19T05:00:16;9.20;;;4.80;;
41946;SDS011;27638;42.184;24.848;2023-03-19T05:02:41;8.75;;;4.40;;
41946;SDS011;27638;42.184;24.848;2023-03-19T05:05:08;11.43;;;5.22;;
41946;SDS011;27638;42.184;24.848;2023-03-19T05:07:35;8.48;;;4.70;;
41946;SDS011;27638;42.184;24.848;2023-03-19T05:10:02;9.70;;;4.93;;
41946;SDS011;27638;42.184;24.848;2023-03-19T05:12:27;8.93;;;5.32;;
41946;SDS011;27638;42.184;24.848;2023-03-19T05:14:53;9.30;;;5.50;;
41946;SDS011;27638;42.184;24.848;2023-03-19T05:17:18;7.47;;;4.50;;
41946;SDS011;27638;42.184;24.848;2023-03-19T05:19:44;7.32;;;4.18;;
41946;SDS011;27638;42.184;24.848;2023-03-19T05:22:09;6.32;;;3.83;;
41946;SDS011;27638;42.184;24.848;2023-03-19T05:24:34;7.80;;;5.28;;
41946;SDS011;27638;42.184;24.848;2023-03-19T05:27:01;8.57;;;5.65;;
41946;SDS011;27638;42.184;24.848;2023-03-19T05:29:27;7.22;;;5.18;;
41946;SDS011;27638;42.184;24.848;2023-03-19T05:31:52;9.18;;;5.03;;
41946;SDS011;27638;42.184;24.848;2023-03-19T05:34:17;7.72;;;4.60;;
41946;SDS011;27638;42.184;24.848;2023-03-19T05:36:43;7.80;;;4.60;;
41946;SDS011;27638;42.184;24.848;2023-03-19T05:39:08;5.30;;;3.58;;
41946;SDS011;27638;42.184;24.848;2023-03-19T05:41:34;5.55;;;3.33;;
41946;SDS011;27638;42.184;24.848;2023-03-19T05:43:59;7.63;;;4.20;;
41946;SDS011;27638;42.184;24.848;2023-03-19T05:46:25;5.78;;;3.70;;
41946;SDS011;27638;42.184;24.848;2023-03-19T05:48:51;6.68;;;3.75;;
41946;SDS011;27638;42.184;24.848;2023-03-19T05:51:17;7.60;;;3.92;;
41946;SDS011;27638;42.184;24.848;2023-03-19T05:53:42;8.10;;;4.50;;
41946;SDS011;27638;42.184;24.848;2023-03-19T05:56:07;18.83;;;9.35;;
41946;SDS011;27638;42.184;24.848;2023-03-19T05:58:33;7.45;;;4.25;;
41946;SDS011;27638;42.184;24.848;2023-03-19T06:00:58;5.97;;;3.42;;
41946;SDS011;27638;42.184;24.848;2023-03-19T06:03:24;5.03;;;3.40;;
41946;SDS011;27638;42.184;24.848;2023-03-19T06:05:51;8.05;;;4.15;;
41946;SDS011;27638;42.184;24.848;2023-03-19T06:08:17;6.85;;;4.28;;
41946;SDS011;27638;42.184;24.848;2023-03-19T06:10:43;9.55;;;5.65;;
41946;SDS011;27638;42.184;24.848;2023-03-19T06:13:08;9.38;;;5.60;;
41946;SDS011;27638;42.184;24.848;2023-03-19T06:15:34;11.70;;;6.18;;
41946;SDS011;27638;42.184;24.848;2023-03-19T06:18:00;8.23;;;5.78;;
41946;SDS011;27638;42.184;24.848;2023-03-19T06:20:25;8.52;;;4.93;;
41946;SDS011;27638;42.184;24.848;2023-03-19T06:22:51;7.88;;;4.78;;
41946;SDS011;27638;42.184;24.848;2023-03-19T06:25:16;5.95;;;4.97;;
41946;SDS011;27638;42.184;24.848;2023-03-19T06:27:42;9.77;;;5.35;;
41946;SDS011;27638;42.184;24.848;2023-03-19T06:30:08;9.85;;;5.13;;
41946;SDS011;27638;42.184;24.848;2023-03-19T06:32:34;7.20;;;4.80;;
41946;SDS011;27638;42.184;24.848;2023-03-19T06:35:00;6.03;;;4.40;;
41946;SDS011;27638;42.184;24.848;2023-03-19T06:37:26;7.20;;;4.70;;
41946;SDS011;27638;42.184;24.848;2023-03-19T06:39:52;6.20;;;3.67;;
41946;SDS011;27638;42.184;24.848;2023-03-19T06:42:19;8.02;;;3.72;;
41946;SDS011;27638;42.184;24.848;2023-03-19T06:44:45;7.03;;;4.05;;
41946;SDS011;27638;42.184;24.848;2023-03-19T06:47:11;7.25;;;4.07;;
41946;SDS011;27638;42.184;24.848;2023-03-19T06:49:36;7.45;;;4.00;;
41946;SDS011;27638;42.184;24.848;2023-03-19T06:52:02;6.82;;;4.05;;
41946;SDS011;27638;42.184;24.848;2023-03-19T06:54:28;6.35;;;3.50;;
41946;SDS011;27638;42.184;24.848;2023-03-19T06:56:53;6.35;;;3.65;;
41946;SDS011;27638;42.184;24.848;2023-03-19T06:59:18;9.68;;;3.95;;
41946;SDS011;27638;42.184;24.848;2023-03-19T07:01:44;4.72;;;3.53;;
41946;SDS011;27638;42.184;24.848;2023-03-19T07:04:10;6.47;;;4.13;;
41946;SDS011;27638;42.184;24.848;2023-03-19T07:06:36;7.25;;;4.13;;
41946;SDS011;27638;42.184;24.848;2023-03-19T07:09:02;5.40;;;4.20;;
41946;SDS011;27638;42.184;24.848;2023-03-19T07:11:28;5.85;;;3.50;;
41946;SDS011;27638;42.184;24.848;2023-03-19T07:13:53;5.75;;;3.90;;
41946;SDS011;27638;42.184;24.848;2023-03-19T07:16:19;5.72;;;3.50;;
41946;SDS011;27638;42.184;24.848;2023-03-19T07:18:45;4.72;;;3.10;;
41946;SDS011;27638;42.184;24.848;2023-03-19T07:21:10;5.72;;;3.47;;
41946;SDS011;27638;42.184;24.848;2023-03-19T07:23:35;5.45;;;3.50;;
41946;SDS011;27638;42.184;24.848;2023-03-19T07:26:01;5.03;;;3.72;;
41946;SDS011;27638;42.184;24.848;2023-03-19T07:28:27;4.68;;;3.60;;
41946;SDS011;27638;42.184;24.848;2023-03-19T07:30:53;10.32;;;5.38;;
41946;SDS011;27638;42.184;24.848;2023-03-19T07:33:18;5.88;;;3.92;;
41946;SDS011;27638;42.184;24.848;2023-03-19T07:35:45;6.82;;;4.97;;
41946;SDS011;27638;42.184;24.848;2023-03-19T07:38:11;9.65;;;4.90;;
41946;SDS011;27638;42.184;24.848;2023-03-19T07:40:36;5.70;;;3.80;;
41946;SDS011;27638;42.184;24.848;2023-03-19T07:43:02;7.45;;;3.90;;
41946;SDS011;27638;42.184;24.848;2023-03-19T07:45:27;9.57;;;4.22;;
41946;SDS011;27638;42.184;24.848;2023-03-19T07:47:53;7.63;;;3.80;;
41946;SDS011;27638;42.184;24.848;2023-03-19T07:50:19;5.10;;;3.80;;
41946;SDS011;27638;42.184;24.848;2023-03-19T07:52:45;6.95;;;3.88;;
41946;SDS011;27638;42.184;24.848;2023-03-19T07:55:12;6.18;;;3.88;;
41946;SDS011;27638;42.184;24.848;2023-03-19T07:57:37;6.25;;;4.13;;
41946;SDS011;27638;42.184;24.848;2023-03-19T08:00:03;6.78;;;4.32;;
41946;SDS011;27638;42.184;24.848;2023-03-19T08:02:29;5.45;;;3.90;;
41946;SDS011;27638;42.184;24.848;2023-03-19T08:04:55;5.03;;;3.92;;
41946;SDS011;27638;42.184;24.848;2023-03-19T08:07:20;7.00;;;4.30;;
41946;SDS011;27638;42.184;24.848;2023-03-19T08:09:46;6.45;;;4.22;;
41946;SDS011;27638;42.184;24.848;2023-03-19T08:12:12;7.45;;;4.07;;
41946;SDS011;27638;42.184;24.848;2023-03-19T08:14:37;7.43;;;5.35;;
41946;SDS011;27638;42.184;24.848;2023-03-19T08:17:03;7.22;;;4.45;;
41946;SDS011;27638;42.184;24.848;2023-03-19T08:19:29;5.60;;;3.78;;
41946;SDS011;27638;42.184;24.848;2023-03-19T08:21:54;7.20;;;3.90;;
41946;SDS011;27638;42.184;24.848;2023-03-19T08:24:20;4.65;;;3.70;;
41946;SDS011;27638;42.184;24.848;2023-03-19T08:26:46;4.30;;;3.33;;
41946;SDS011;27638;42.184;24.848;2023-03-19T08:29:11;4.43;;;3.50;;
41946;SDS011;27638;42.184;24.848;2023-03-19T08:31:37;5.93;;;3.90;;
41946;SDS011;27638;42.184;24.848;2023-03-19T08:34:02;12.18;;;6.00;;
41946;SDS011;27638;42.184;24.848;2023-03-19T08:36:28;4.10;;;3.35;;
41946;SDS011;27638;42.184;24.848;2023-03-19T08:38:54;6.68;;;3.05;;
41946;SDS011;27638;42.184;24.848;2023-03-19T08:41:21;4.97;;;2.72;;
41946;SDS011;27638;42.184;24.848;2023-03-19T08:43:46;4.15;;;2.97;;
41946;SDS011;27638;42.184;24.848;2023-03-19T08:46:12;4.32;;;2.90;;
41946;SDS011;27638;42.184;24.848;2023-03-19T08:48:37;5.10;;;3.17;;
41946;SDS011;27638;42.184;24.848;2023-03-19T08:51:03;4.90;;;2.90;;
41946;SDS011;27638;42.184;24.848;2023-03-19T08:53:30;3.83;;;2.85;;
41946;SDS011;27638;42.184;24.848;2023-03-19T08:56:00;3.95;;;2.72;;
41946;SDS011;27638;42.184;24.848;2023-03-19T08:58:28;3.90;;;2.95;;
41946;SDS011;27638;42.184;24.848;2023-03-19T09:01:11;4.63;;;3.40;;
41946;SDS011;27638;42.184;24.848;2023-03-19T09:03:38;4.68;;;3.90;;
41946;SDS011;27638;42.184;24.848;2023-03-19T09:06:05;4.43;;;3.38;;
41946;SDS011;27638;42.184;24.848;2023-03-19T09:08:32;3.58;;;2.58;;
41946;SDS011;27638;42.184;24.848;2023-03-19T09:10:59;10.25;;;5.00;;
41946;SDS011;27638;42.184;24.848;2023-03-19T09:13:24;4.22;;;2.90;;
41946;SDS011;27638;42.184;24.848;2023-03-19T09:15:50;6.00;;;2.88;;
41946;SDS011;27638;42.184;24.848;2023-03-19T09:18:16;4.10;;;2.92;;
41946;SDS011;27638;42.184;24.848;2023-03-19T09:20:42;4.35;;;2.97;;
41946;SDS011;27638;42.184;24.848;2023-03-19T09:23:07;5.50;;;3.33;;
41946;SDS011;27638;42.184;24.848;2023-03-19T09:25:33;3.33;;;2.70;;
41946;SDS011;27638;42.184;24.848;2023-03-19T09:27:59;4.07;;;2.50;;
41946;SDS011;27638;42.184;24.848;2023-03-19T09:30:25;5.88;;;3.20;;
41946;SDS011;27638;42.184;24.848;2023-03-19T09:32:51;3.65;;;2.45;;
41946;SDS011;27638;42.184;24.848;2023-03-19T09:35:16;6.88;;;3.80;;
41946;SDS011;27638;42.184;24.848;2023-03-19T09:37:41;3.65;;;2.47;;
41946;SDS011;27638;42.184;24.848;2023-03-19T09:40:09;5.07;;;2.92;;
41946;SDS011;27638;42.184;24.848;2023-03-19T09:46:15;4.15;;;2.17;;
41946;SDS011;27638;42.184;24.848;2023-03-19T09:48:51;7.35;;;3.72;;
41946;SDS011;27638;42.184;24.848;2023-03-19T09:57:10;2.85;;;2.30;;
41946;SDS011;27638;42.184;24.848;2023-03-19T09:59:36;2.35;;;2.00;;
41946;SDS011;27638;42.184;24.848;2023-03-19T10:04:47;2.15;;;1.95;;
41946;SDS011;27638;42.184;24.848;2023-03-19T10:07:37;2.15;;;1.85;;
41946;SDS011;27638;42.184;24.848;2023-03-19T10:15:38;1.98;;;1.80;;
41946;SDS011;27638;42.184;24.848;2023-03-19T10:18:13;4.13;;;2.30;;
41946;SDS011;27638;42.184;24.848;2023-03-19T10:20:43;2.95;;;2.30;;
41946;SDS011;27638;42.184;24.848;2023-03-19T10:26:08;2.17;;;1.98;;
41946;SDS011;27638;42.184;24.848;2023-03-19T10:28:37;2.28;;;2.08;;
41946;SDS011;27638;42.184;24.848;2023-03-19T10:36:34;3.05;;;2.17;;
41946;SDS011;27638;42.184;24.848;2023-03-19T10:39:00;7.78;;;4.13;;
41946;SDS011;27638;42.184;24.848;2023-03-19T10:44:20;3.30;;;2.30;;
41946;SDS011;27638;42.184;24.848;2023-03-19T10:46:53;2.85;;;2.17;;
41946;SDS011;27638;42.184;24.848;2023-03-19T10:49:22;2.20;;;1.92;;
41946;SDS011;27638;42.184;24.848;2023-03-19T10:51:47;2.08;;;1.88;;
41946;SDS011;27638;42.184;24.848;2023-03-19T10:54:23;2.03;;;1.75;;
41946;SDS011;27638;42.184;24.848;2023-03-19T10:56:53;4.03;;;2.25;;
41946;SDS011;27638;42.184;24.848;2023-03-19T10:59:38;2.75;;;2.03;;
41946;SDS011;27638;42.184;24.848;2023-03-19T11:02:14;2.40;;;1.90;;
41946;SDS011;27638;42.184;24.848;2023-03-19T11:04:47;3.55;;;2.80;;
41946;SDS011;27638;42.184;24.848;2023-03-19T11:07:30;2.53;;;2.33;;
41946;SDS011;27638;42.184;24.848;2023-03-19T11:09:57;3.10;;;2.20;;
41946;SDS011;27638;42.184;24.848;2023-03-19T11:12:26;4.00;;;2.40;;
41946;SDS011;27638;42.184;24.848;2023-03-19T11:14:55;3.92;;;2.45;;
41946;SDS011;27638;42.184;24.848;2023-03-19T11:17:23;2.65;;;2.00;;
41946;SDS011;27638;42.184;24.848;2023-03-19T11:22:51;3.20;;;2.15;;
41946;SDS011;27638;42.184;24.848;2023-03-19T11:28:01;4.37;;;2.43;;
41946;SDS011;27638;42.184;24.848;2023-03-19T11:44:14;2.85;;;2.30;;
41946;SDS011;27638;42.184;24.848;2023-03-19T11:47:00;3.00;;;2.33;;
41946;SDS011;27638;42.184;24.848;2023-03-19T12:22:21;2.00;;;1.52;;
41946;SDS011;27638;42.184;24.848;2023-03-19T12:36:06;3.20;;;2.00;;
41946;SDS011;27638;42.184;24.848;2023-03-19T12:38:38;3.47;;;1.77;;
41946;SDS011;27638;42.184;24.848;2023-03-19T12:41:09;1.63;;;1.50;;
41946;SDS011;27638;42.184;24.848;2023-03-19T12:48:54;2.33;;;1.70;;
41946;SDS011;27638;42.184;24.848;2023-03-19T12:51:52;2.33;;;1.90;;
41946;SDS011;27638;42.184;24.848;2023-03-19T12:54:27;2.33;;;1.40;;
41946;SDS011;27638;42.184;24.848;2023-03-19T12:57:01;2.78;;;1.73;;
41946;SDS011;27638;42.184;24.848;2023-03-19T12:59:37;2.58;;;1.67;;
41946;SDS011;27638;42.184;24.848;2023-03-19T13:02:28;3.88;;;2.08;;
41946;SDS011;27638;42.184;24.848;2023-03-19T13:05:02;2.05;;;1.80;;
41946;SDS011;27638;42.184;24.848;2023-03-19T13:07:44;2.25;;;1.50;;
41946;SDS011;27638;42.184;24.848;2023-03-19T13:10:21;3.88;;;1.60;;
41946;SDS011;27638;42.184;24.848;2023-03-19T13:12:48;3.03;;;1.50;;
41946;SDS011;27638;42.184;24.848;2023-03-19T13:15:18;1.98;;;1.60;;
41946;SDS011;27638;42.184;24.848;2023-03-19T13:23:58;2.13;;;1.92;;
41946;SDS011;27638;42.184;24.848;2023-03-19T13:26:36;3.20;;;1.83;;
41946;SDS011;27638;42.184;24.848;2023-03-19T13:29:36;1.88;;;1.50;;
41946;SDS011;27638;42.184;24.848;2023-03-19T13:34:48;2.28;;;1.27;;
41946;SDS011;27638;42.184;24.848;2023-03-19T13:37:17;1.67;;;1.58;;
41946;SDS011;27638;42.184;24.848;2023-03-19T13:39:46;1.80;;;1.13;;
41946;SDS011;27638;42.184;24.848;2023-03-19T14:01:10;3.80;;;2.00;;
41946;SDS011;27638;42.184;24.848;2023-03-19T14:09:43;2.05;;;1.92;;
41946;SDS011;27638;42.184;24.848;2023-03-19T14:14:45;4.80;;;2.63;;
41946;SDS011;27638;42.184;24.848;2023-03-19T14:17:21;2.47;;;2.00;;
41946;SDS011;27638;42.184;24.848;2023-03-19T14:19:51;2.45;;;1.65;;
41946;SDS011;27638;42.184;24.848;2023-03-19T14:22:19;10.30;;;3.28;;
41946;SDS011;27638;42.184;24.848;2023-03-19T14:25:01;4.03;;;2.40;;
41946;SDS011;27638;42.184;24.848;2023-03-19T14:27:27;4.57;;;2.88;;
41946;SDS011;27638;42.184;24.848;2023-03-19T14:29:57;5.07;;;3.28;;
41946;SDS011;27638;42.184;24.848;2023-03-19T14:32:33;2.97;;;2.20;;
41946;SDS011;27638;42.184;24.848;2023-03-19T14:35:05;6.80;;;2.28;;
41946;SDS011;27638;42.184;24.848;2023-03-19T14:40:28;1.83;;;1.58;;
41946;SDS011;27638;42.184;24.848;2023-03-19T14:43:19;2.38;;;1.85;;
41946;SDS011;27638;42.184;24.848;2023-03-19T14:46:08;2.28;;;1.70;;
41946;SDS011;27638;42.184;24.848;2023-03-19T14:54:03;1.42;;;1.33;;
41946;SDS011;27638;42.184;24.848;2023-03-19T14:56:39;2.00;;;1.52;;
41946;SDS011;27638;42.184;24.848;2023-03-19T14:59:07;2.25;;;1.30;;
41946;SDS011;27638;42.184;24.848;2023-03-19T15:01:38;2.40;;;1.40;;
41946;SDS011;27638;42.184;24.848;2023-03-19T15:04:07;1.42;;;1.00;;
41946;SDS011;27638;42.184;24.848;2023-03-19T15:06:38;1.63;;;1.10;;
41946;SDS011;27638;42.184;24.848;2023-03-19T15:09:06;1.40;;;1.20;;
41946;SDS011;27638;42.184;24.848;2023-03-19T15:11:43;1.30;;;1.15;;
41946;SDS011;27638;42.184;24.848;2023-03-19T15:17:24;1.30;;;1.20;;
41946;SDS011;27638;42.184;24.848;2023-03-19T15:19:53;1.45;;;1.30;;
41946;SDS011;27638;42.184;24.848;2023-03-19T15:22:22;1.38;;;1.08;;
41946;SDS011;27638;42.184;24.848;2023-03-19T15:25:12;5.03;;;1.40;;
41946;SDS011;27638;42.184;24.848;2023-03-19T15:27:39;3.22;;;1.48;;
41946;SDS011;27638;42.184;24.848;2023-03-19T15:30:22;2.28;;;1.70;;
41946;SDS011;27638;42.184;24.848;2023-03-19T15:32:51;2.53;;;1.73;;
41946;SDS011;27638;42.184;24.848;2023-03-19T15:35:17;3.63;;;1.42;;
41946;SDS011;27638;42.184;24.848;2023-03-19T15:37:45;2.38;;;1.23;;
41946;SDS011;27638;42.184;24.848;2023-03-19T15:40:15;3.05;;;1.67;;
41946;SDS011;27638;42.184;24.848;2023-03-19T15:42:45;2.03;;;1.42;;
41946;SDS011;27638;42.184;24.848;2023-03-19T15:45:13;1.95;;;1.20;;
41946;SDS011;27638;42.184;24.848;2023-03-19T15:47:47;4.68;;;1.70;;
41946;SDS011;27638;42.184;24.848;2023-03-19T15:50:22;7.07;;;2.28;;
41946;SDS011;27638;42.184;24.848;2023-03-19T15:52:53;4.25;;;1.92;;
41946;SDS011;27638;42.184;24.848;2023-03-19T15:55:23;8.35;;;2.30;;
41946;SDS011;27638;42.184;24.848;2023-03-19T15:57:50;11.75;;;2.80;;
41946;SDS011;27638;42.184;24.848;2023-03-19T16:00:18;9.07;;;2.95;;
41946;SDS011;27638;42.184;24.848;2023-03-19T16:02:45;5.35;;;2.50;;
41946;SDS011;27638;42.184;24.848;2023-03-19T16:05:26;6.35;;;2.92;;
41946;SDS011;27638;42.184;24.848;2023-03-19T16:07:58;5.40;;;2.63;;
41946;SDS011;27638;42.184;24.848;2023-03-19T16:10:41;4.85;;;2.70;;
41946;SDS011;27638;42.184;24.848;2023-03-19T16:15:59;9.80;;;5.43;;
41946;SDS011;27638;42.184;24.848;2023-03-19T16:18:47;13.13;;;8.73;;
41946;SDS011;27638;42.184;24.848;2023-03-19T16:21:15;14.95;;;7.97;;
41946;SDS011;27638;42.184;24.848;2023-03-19T16:23:53;6.90;;;5.63;;
41946;SDS011;27638;42.184;24.848;2023-03-19T16:26:28;7.43;;;6.22;;
41946;SDS011;27638;42.184;24.848;2023-03-19T16:31:50;7.85;;;6.03;;
41946;SDS011;27638;42.184;24.848;2023-03-19T16:34:25;7.78;;;6.47;;
41946;SDS011;27638;42.184;24.848;2023-03-19T16:36:55;12.10;;;6.95;;
41946;SDS011;27638;42.184;24.848;2023-03-19T16:39:25;5.97;;;3.85;;
41946;SDS011;27638;42.184;24.848;2023-03-19T16:42:23;8.48;;;6.00;;
41946;SDS011;27638;42.184;24.848;2023-03-19T16:44:50;11.25;;;6.85;;
41946;SDS011;27638;42.184;24.848;2023-03-19T16:47:15;16.30;;;9.93;;
41946;SDS011;27638;42.184;24.848;2023-03-19T16:49:41;17.42;;;10.20;;
41946;SDS011;27638;42.184;24.848;2023-03-19T16:52:10;12.32;;;8.35;;
41946;SDS011;27638;42.184;24.848;2023-03-19T16:54:40;10.70;;;6.93;;
41946;SDS011;27638;42.184;24.848;2023-03-19T16:57:07;11.50;;;6.28;;
41946;SDS011;27638;42.184;24.848;2023-03-19T16:59:37;6.43;;;4.95;;
41946;SDS011;27638;42.184;24.848;2023-03-19T17:02:08;9.23;;;6.05;;
41946;SDS011;27638;42.184;24.848;2023-03-19T17:04:37;9.07;;;6.82;;
41946;SDS011;27638;42.184;24.848;2023-03-19T17:07:03;8.32;;;5.45;;
41946;SDS011;27638;42.184;24.848;2023-03-19T17:09:29;9.32;;;5.32;;
41946;SDS011;27638;42.184;24.848;2023-03-19T17:11:54;6.90;;;4.60;;